YTZ landing incident

This forum has been developed to discuss aviation related topics.

Moderators: lilfssister, North Shore, ahramin, sky's the limit, sepia, Sulako, I WAS Birddog

Post Reply
User avatar
Dash-Ate
Rank (9)
Rank (9)
Posts: 1760
Joined: Wed Sep 06, 2006 8:15 pm
Location: Placarded INOP

YTZ landing incident

Post by Dash-Ate »

Plane occupants safe after pilot overshoots Island Airport runway
Web Staff, cp24.com

http://www.cp24.com/servlet/an/local/CT ... b=CP24Home


A small plane’s six occupants are unharmed after its pilot overshot the runway at the Toronto Island Airport on Friday night.


The plane was attempting to land at the airport at about 9:45 p.m. when it missed the runway, according to the marine unit of the Toronto police.


It is unclear what size of plane it was, although police confirm it was carrying a pilot and five passengers.

Visibility was extremely poor at the time of the incident, with fog and drizzle blanketing downtown Toronto.

Image
---------- ADS -----------
  
That'll buff right out :rolleyes:
Image

CAL
Rank (9)
Rank (9)
Posts: 1376
Joined: Tue Feb 17, 2004 8:47 pm

Re: YTZ landing incident

Post by CAL »

Hmmm...that kinda looks like a Cheyenne? or a Cessna?

anyone...
---------- ADS -----------
  

bbb
Rank 3
Rank 3
Posts: 116
Joined: Mon Jul 25, 2005 2:36 pm
Location: Ontario

Re: YTZ landing incident

Post by bbb »

Looks like a 414, tip tanks, round cessna pressurized windows...
---------- ADS -----------
  
"oh, I have slipped.." into what, we're not sure

bbb
Rank 3
Rank 3
Posts: 116
Joined: Mon Jul 25, 2005 2:36 pm
Location: Ontario

Re: YTZ landing incident

Post by bbb »

Looks like I was close, but shoulda counted the windows.... duh

http://flightaware.com/live/flight/CGCCF

C421 must be an A or B model....
---------- ADS -----------
  
"oh, I have slipped.." into what, we're not sure

bbb
Rank 3
Rank 3
Posts: 116
Joined: Mon Jul 25, 2005 2:36 pm
Location: Ontario

Re: YTZ landing incident

Post by bbb »

And the weather....

METAR CYTZ 100200Z AUTO 02012G18KT 8SM FEW010 BKN022 10/09 A2977 RMK
PCPN 1.5MM PAST HR SLP081=

SPECI CYTZ 100159Z AUTO 02009G18KT 8SM FEW010 BKN025 10/09 A2977=

SPECI CYTZ 100154Z AUTO 02012G22KT 7SM -RA SCT009 BKN025 10/09 A2976=

SPECI CYTZ 100118Z AUTO 36007G16KT 3 1/2SM -RA BKN009 OVC020 11/10
A2977=

SPECI CYTZ 100115Z AUTO 35009G16KT 3 1/2SM -RA BKN011 OVC020 11/10
A2977=

METAR CYTZ 100100Z AUTO 35006KT 3 1/2SM -RA OVC009 11/10 A2978 RMK
PCPN 1.5MM PAST HR SLP086=

SPECI CYTZ 100047Z AUTO 01009KT 2 3/8SM -RA BKN009 BKN033 11/10
A2978=

SPECI CYTZ 100037Z AUTO 02009G15KT 2 1/8SM -RA SCT011 BKN017 11/10
A2978=

SPECI CYTZ 100023Z AUTO 01007G15KT 2 1/2SM -RA BKN008 11/11 A2976=

SPECI CYTZ 100021Z AUTO 05006KT 3SM -RA BKN008 11/11 A2976=

SPECI CYTZ 100019Z AUTO 05005KT 3SM -RA BKN012 11/11 A2977=

METAR CYTZ 100000Z AUTO 07005KT 3 1/2SM -RA OVC017 11/11 A2977 RMK
PCPN 1.5MM PAST HR SLP085=

er...
---------- ADS -----------
  
"oh, I have slipped.." into what, we're not sure

User avatar
Guido
Rank (9)
Rank (9)
Posts: 1377
Joined: Sun Feb 15, 2004 10:52 pm
Location: Over there.

Re: YTZ landing incident

Post by Guido »

Gawd... I can just imagine what the Community AIR people will be saying tomorrow....
---------- ADS -----------
  

Hvd2Pilot
Rank 1
Rank 1
Posts: 42
Joined: Thu Sep 24, 2009 8:49 pm

Re: YTZ landing incident

Post by Hvd2Pilot »

Well who moved the frickin' runway !?!?!??!?! :shock:
---------- ADS -----------
  

Post Reply

Return to “General Comments”